Amboy, Indiana
Current Conditions -  °F | °C
As of 6:15 PM on Tuesday 25 Nov 2014 (Local Time) from KOKK Reporting Station
Overcast Overcast  
Wind Chill: -8°   Ceiling: 1200
Heat Index: -3°   Visibility: 10mi
Dew Point: -7°   Wind: 8mph
Humidity: 74%   Direction: 310°NW
Pressure: 30.17"   Gusts: NA
Location:  40.6°N, 85.93°W
Report Text: KOKK 252315Z AUTO 31007KT 10SM OVC012 M03/M07 A3017 RMK AO1
Loading
Personal Weather Stations






























Interactive Weather Map New forecast layout! Learn more

10-Day Weather Forecast

Advertisements
Track Severe Weather on mobile